sensor_id;sensor_type;location;lat;lon;timestamp;P1;durP1;ratioP1;P2;durP2;ratioP2
65275;SDS011;51875;49.994;14.052;2022-12-22T00:01:50;56.05;;;20.65;;
65275;SDS011;51875;49.994;14.052;2022-12-22T00:03:25;62.25;;;21.98;;
65275;SDS011;51875;49.994;14.052;2022-12-22T00:04:59;141.85;;;32.15;;
65275;SDS011;51875;49.994;14.052;2022-12-22T00:06:33;189.88;;;37.08;;
65275;SDS011;51875;49.994;14.052;2022-12-22T00:08:08;162.75;;;36.80;;
65275;SDS011;51875;49.994;14.052;2022-12-22T00:09:43;87.00;;;31.42;;
65275;SDS011;51875;49.994;14.052;2022-12-22T00:11:17;202.48;;;36.75;;
65275;SDS011;51875;49.994;14.052;2022-12-22T00:12:52;141.52;;;33.88;;
65275;SDS011;51875;49.994;14.052;2022-12-22T00:14:26;104.85;;;33.00;;
65275;SDS011;51875;49.994;14.052;2022-12-22T00:16:01;91.43;;;32.92;;
65275;SDS011;51875;49.994;14.052;2022-12-22T00:17:35;112.70;;;33.50;;
65275;SDS011;51875;49.994;14.052;2022-12-22T00:19:10;155.70;;;34.17;;
65275;SDS011;51875;49.994;14.052;2022-12-22T00:20:46;157.45;;;35.20;;
65275;SDS011;51875;49.994;14.052;2022-12-22T00:22:22;87.28;;;33.20;;
65275;SDS011;51875;49.994;14.052;2022-12-22T00:23:58;173.40;;;34.88;;
65275;SDS011;51875;49.994;14.052;2022-12-22T00:25:32;233.30;;;37.72;;
65275;SDS011;51875;49.994;14.052;2022-12-22T00:27:11;93.75;;;31.17;;
65275;SDS011;51875;49.994;14.052;2022-12-22T00:28:48;107.75;;;26.45;;
65275;SDS011;51875;49.994;14.052;2022-12-22T00:30:22;80.65;;;26.95;;
65275;SDS011;51875;49.994;14.052;2022-12-22T00:31:57;81.43;;;22.58;;
65275;SDS011;51875;49.994;14.052;2022-12-22T00:33:31;52.75;;;20.60;;
65275;SDS011;51875;49.994;14.052;2022-12-22T00:35:12;80.05;;;20.70;;
65275;SDS011;51875;49.994;14.052;2022-12-22T00:36:48;53.15;;;19.05;;
65275;SDS011;51875;49.994;14.052;2022-12-22T00:38:22;69.68;;;22.63;;
65275;SDS011;51875;49.994;14.052;2022-12-22T00:39:56;76.07;;;20.15;;
65275;SDS011;51875;49.994;14.052;2022-12-22T00:41:31;84.10;;;22.05;;
65275;SDS011;51875;49.994;14.052;2022-12-22T00:43:05;63.65;;;19.60;;
65275;SDS011;51875;49.994;14.052;2022-12-22T00:44:39;48.95;;;19.25;;
65275;SDS011;51875;49.994;14.052;2022-12-22T00:46:14;45.63;;;18.35;;
65275;SDS011;51875;49.994;14.052;2022-12-22T00:47:50;58.33;;;19.00;;
65275;SDS011;51875;49.994;14.052;2022-12-22T00:49:24;58.80;;;18.65;;
65275;SDS011;51875;49.994;14.052;2022-12-22T00:50:59;38.92;;;16.80;;
65275;SDS011;51875;49.994;14.052;2022-12-22T00:52:33;47.03;;;16.52;;
65275;SDS011;51875;49.994;14.052;2022-12-22T00:54:08;50.83;;;19.50;;
65275;SDS011;51875;49.994;14.052;2022-12-22T00:55:44;59.17;;;18.95;;
65275;SDS011;51875;49.994;14.052;2022-12-22T00:57:18;57.05;;;21.17;;
65275;SDS011;51875;49.994;14.052;2022-12-22T00:58:57;68.60;;;21.73;;
65275;SDS011;51875;49.994;14.052;2022-12-22T01:00:33;144.75;;;24.48;;
65275;SDS011;51875;49.994;14.052;2022-12-22T01:02:07;55.25;;;21.20;;
65275;SDS011;51875;49.994;14.052;2022-12-22T01:03:41;91.82;;;23.88;;
65275;SDS011;51875;49.994;14.052;2022-12-22T01:05:16;50.88;;;18.63;;
65275;SDS011;51875;49.994;14.052;2022-12-22T01:06:51;46.25;;;17.08;;
65275;SDS011;51875;49.994;14.052;2022-12-22T01:08:25;48.15;;;18.70;;
65275;SDS011;51875;49.994;14.052;2022-12-22T01:09:59;47.90;;;18.13;;
65275;SDS011;51875;49.994;14.052;2022-12-22T01:11:33;61.70;;;20.50;;
65275;SDS011;51875;49.994;14.052;2022-12-22T01:13:11;48.97;;;20.50;;
65275;SDS011;51875;49.994;14.052;2022-12-22T01:14:47;46.70;;;17.80;;
65275;SDS011;51875;49.994;14.052;2022-12-22T01:16:21;52.65;;;18.30;;
65275;SDS011;51875;49.994;14.052;2022-12-22T01:17:56;43.63;;;15.45;;
65275;SDS011;51875;49.994;14.052;2022-12-22T01:19:30;44.88;;;19.85;;
65275;SDS011;51875;49.994;14.052;2022-12-22T01:21:04;44.85;;;18.65;;
65275;SDS011;51875;49.994;14.052;2022-12-22T01:22:38;43.75;;;18.02;;
65275;SDS011;51875;49.994;14.052;2022-12-22T01:24:13;130.20;;;28.63;;
65275;SDS011;51875;49.994;14.052;2022-12-22T01:25:49;127.50;;;32.70;;
65275;SDS011;51875;49.994;14.052;2022-12-22T01:27:22;89.68;;;29.40;;
65275;SDS011;51875;49.994;14.052;2022-12-22T01:28:57;83.60;;;26.73;;
65275;SDS011;51875;49.994;14.052;2022-12-22T01:30:31;71.97;;;24.30;;
65275;SDS011;51875;49.994;14.052;2022-12-22T01:32:07;62.15;;;24.08;;
65275;SDS011;51875;49.994;14.052;2022-12-22T01:33:46;55.50;;;21.48;;
65275;SDS011;51875;49.994;14.052;2022-12-22T01:35:21;88.50;;;24.40;;
65275;SDS011;51875;49.994;14.052;2022-12-22T01:36:57;68.63;;;22.77;;
65275;SDS011;51875;49.994;14.052;2022-12-22T01:38:32;51.60;;;20.95;;
65275;SDS011;51875;49.994;14.052;2022-12-22T01:40:08;52.28;;;21.50;;
65275;SDS011;51875;49.994;14.052;2022-12-22T01:41:47;58.28;;;21.48;;
65275;SDS011;51875;49.994;14.052;2022-12-22T01:43:24;66.38;;;22.60;;
65275;SDS011;51875;49.994;14.052;2022-12-22T01:45:04;55.42;;;22.52;;
65275;SDS011;51875;49.994;14.052;2022-12-22T01:47:17;56.88;;;20.77;;
65275;SDS011;51875;49.994;14.052;2022-12-22T01:48:58;57.45;;;20.60;;
65275;SDS011;51875;49.994;14.052;2022-12-22T01:50:33;62.05;;;21.20;;
65275;SDS011;51875;49.994;14.052;2022-12-22T01:52:10;46.28;;;17.85;;
65275;SDS011;51875;49.994;14.052;2022-12-22T01:53:45;43.17;;;16.38;;
65275;SDS011;51875;49.994;14.052;2022-12-22T01:55:21;42.70;;;16.65;;
65275;SDS011;51875;49.994;14.052;2022-12-22T01:56:57;42.40;;;16.08;;
65275;SDS011;51875;49.994;14.052;2022-12-22T01:58:34;47.33;;;18.08;;
65275;SDS011;51875;49.994;14.052;2022-12-22T02:00:13;52.20;;;17.63;;
65275;SDS011;51875;49.994;14.052;2022-12-22T02:01:48;47.97;;;17.20;;
65275;SDS011;51875;49.994;14.052;2022-12-22T02:03:22;107.60;;;25.02;;
65275;SDS011;51875;49.994;14.052;2022-12-22T02:04:57;135.38;;;28.20;;
65275;SDS011;51875;49.994;14.052;2022-12-22T02:06:38;67.05;;;24.88;;
65275;SDS011;51875;49.994;14.052;2022-12-22T02:08:49;72.65;;;23.23;;
65275;SDS011;51875;49.994;14.052;2022-12-22T02:10:33;60.70;;;22.48;;
65275;SDS011;51875;49.994;14.052;2022-12-22T02:12:12;98.03;;;24.55;;
65275;SDS011;51875;49.994;14.052;2022-12-22T02:17:34;93.18;;;27.88;;
65275;SDS011;51875;49.994;14.052;2022-12-22T02:19:14;127.45;;;31.45;;
65275;SDS011;51875;49.994;14.052;2022-12-22T02:21:22;85.13;;;30.75;;
65275;SDS011;51875;49.994;14.052;2022-12-22T02:25:04;86.60;;;28.48;;
65275;SDS011;51875;49.994;14.052;2022-12-22T02:26:51;74.68;;;29.23;;
65275;SDS011;51875;49.994;14.052;2022-12-22T02:28:29;122.45;;;34.20;;
65275;SDS011;51875;49.994;14.052;2022-12-22T02:30:06;97.40;;;28.88;;
65275;SDS011;51875;49.994;14.052;2022-12-22T02:31:42;96.15;;;28.30;;
65275;SDS011;51875;49.994;14.052;2022-12-22T02:33:16;81.75;;;28.08;;
65275;SDS011;51875;49.994;14.052;2022-12-22T02:34:52;110.47;;;30.90;;
65275;SDS011;51875;49.994;14.052;2022-12-22T02:38:44;93.28;;;28.88;;
65275;SDS011;51875;49.994;14.052;2022-12-22T02:40:27;107.75;;;30.35;;
65275;SDS011;51875;49.994;14.052;2022-12-22T02:42:28;75.30;;;28.52;;
65275;SDS011;51875;49.994;14.052;2022-12-22T02:46:02;78.38;;;27.88;;
65275;SDS011;51875;49.994;14.052;2022-12-22T02:47:51;84.78;;;25.73;;
65275;SDS011;51875;49.994;14.052;2022-12-22T02:49:39;94.38;;;29.38;;
65275;SDS011;51875;49.994;14.052;2022-12-22T02:51:20;76.40;;;26.85;;
65275;SDS011;51875;49.994;14.052;2022-12-22T02:52:59;69.60;;;25.52;;
65275;SDS011;51875;49.994;14.052;2022-12-22T02:54:35;68.78;;;22.67;;
65275;SDS011;51875;49.994;14.052;2022-12-22T02:56:09;64.03;;;24.88;;
65275;SDS011;51875;49.994;14.052;2022-12-22T02:57:44;66.53;;;25.98;;
65275;SDS011;51875;49.994;14.052;2022-12-22T02:59:19;64.47;;;26.42;;
65275;SDS011;51875;49.994;14.052;2022-12-22T03:00:53;76.00;;;25.70;;
65275;SDS011;51875;49.994;14.052;2022-12-22T03:02:27;68.90;;;27.13;;
65275;SDS011;51875;49.994;14.052;2022-12-22T03:04:01;71.72;;;28.55;;
65275;SDS011;51875;49.994;14.052;2022-12-22T03:05:36;65.60;;;26.58;;
65275;SDS011;51875;49.994;14.052;2022-12-22T03:07:10;57.83;;;24.92;;
65275;SDS011;51875;49.994;14.052;2022-12-22T03:08:44;67.90;;;27.55;;
65275;SDS011;51875;49.994;14.052;2022-12-22T03:10:18;57.92;;;24.67;;
65275;SDS011;51875;49.994;14.052;2022-12-22T03:11:52;58.78;;;25.13;;
65275;SDS011;51875;49.994;14.052;2022-12-22T03:13:27;53.85;;;24.10;;
65275;SDS011;51875;49.994;14.052;2022-12-22T03:15:01;62.80;;;25.65;;
65275;SDS011;51875;49.994;14.052;2022-12-22T03:16:35;62.05;;;24.98;;
65275;SDS011;51875;49.994;14.052;2022-12-22T03:18:10;71.05;;;28.13;;
65275;SDS011;51875;49.994;14.052;2022-12-22T03:19:45;66.20;;;26.65;;
65275;SDS011;51875;49.994;14.052;2022-12-22T03:21:19;59.50;;;26.13;;
65275;SDS011;51875;49.994;14.052;2022-12-22T03:22:53;61.08;;;26.23;;
65275;SDS011;51875;49.994;14.052;2022-12-22T03:24:28;65.97;;;26.20;;
65275;SDS011;51875;49.994;14.052;2022-12-22T03:26:03;64.07;;;24.25;;
65275;SDS011;51875;49.994;14.052;2022-12-22T03:27:18;64.25;;;26.85;;
65275;SDS011;51875;49.994;14.052;2022-12-22T03:28:34;62.40;;;24.95;;
65275;SDS011;51875;49.994;14.052;2022-12-22T03:29:49;53.55;;;24.33;;
65275;SDS011;51875;49.994;14.052;2022-12-22T03:31:05;60.97;;;24.23;;
65275;SDS011;51875;49.994;14.052;2022-12-22T03:32:21;53.53;;;23.85;;
65275;SDS011;51875;49.994;14.052;2022-12-22T03:33:36;55.95;;;23.17;;
65275;SDS011;51875;49.994;14.052;2022-12-22T03:34:52;59.58;;;24.08;;
65275;SDS011;51875;49.994;14.052;2022-12-22T03:36:08;56.15;;;24.10;;
65275;SDS011;51875;49.994;14.052;2022-12-22T03:37:24;62.03;;;25.20;;
65275;SDS011;51875;49.994;14.052;2022-12-22T03:38:39;59.13;;;24.02;;
65275;SDS011;51875;49.994;14.052;2022-12-22T03:39:55;55.53;;;23.27;;
65275;SDS011;51875;49.994;14.052;2022-12-22T03:41:11;54.33;;;22.92;;
65275;SDS011;51875;49.994;14.052;2022-12-22T03:42:46;132.38;;;30.50;;
65275;SDS011;51875;49.994;14.052;2022-12-22T03:44:20;61.38;;;24.45;;
65275;SDS011;51875;49.994;14.052;2022-12-22T03:45:55;105.57;;;28.25;;
65275;SDS011;51875;49.994;14.052;2022-12-22T03:47:30;60.20;;;24.65;;
65275;SDS011;51875;49.994;14.052;2022-12-22T03:48:46;60.35;;;25.27;;
65275;SDS011;51875;49.994;14.052;2022-12-22T03:50:20;59.22;;;24.90;;
65275;SDS011;51875;49.994;14.052;2022-12-22T03:51:40;88.13;;;27.38;;
65275;SDS011;51875;49.994;14.052;2022-12-22T03:52:56;58.58;;;24.35;;
65275;SDS011;51875;49.994;14.052;2022-12-22T03:54:12;81.53;;;27.10;;
65275;SDS011;51875;49.994;14.052;2022-12-22T03:55:29;66.38;;;23.85;;
65275;SDS011;51875;49.994;14.052;2022-12-22T03:56:46;58.60;;;23.13;;
65275;SDS011;51875;49.994;14.052;2022-12-22T03:58:02;72.78;;;25.40;;
65275;SDS011;51875;49.994;14.052;2022-12-22T03:59:18;71.78;;;26.23;;
65275;SDS011;51875;49.994;14.052;2022-12-22T04:00:34;67.30;;;24.27;;
65275;SDS011;51875;49.994;14.052;2022-12-22T04:01:51;51.00;;;22.90;;
65275;SDS011;51875;49.994;14.052;2022-12-22T04:03:07;56.95;;;23.52;;
65275;SDS011;51875;49.994;14.052;2022-12-22T04:04:24;64.25;;;23.67;;
65275;SDS011;51875;49.994;14.052;2022-12-22T04:05:40;49.20;;;21.75;;
65275;SDS011;51875;49.994;14.052;2022-12-22T04:06:56;49.88;;;22.27;;
65275;SDS011;51875;49.994;14.052;2022-12-22T04:08:11;57.83;;;22.70;;
65275;SDS011;51875;49.994;14.052;2022-12-22T04:09:27;51.70;;;20.92;;
65275;SDS011;51875;49.994;14.052;2022-12-22T04:10:43;49.08;;;21.10;;
65275;SDS011;51875;49.994;14.052;2022-12-22T04:12:18;40.63;;;18.35;;
65275;SDS011;51875;49.994;14.052;2022-12-22T04:13:52;38.55;;;17.75;;
65275;SDS011;51875;49.994;14.052;2022-12-22T04:15:07;38.25;;;17.42;;
65275;SDS011;51875;49.994;14.052;2022-12-22T04:16:23;42.40;;;16.73;;
65275;SDS011;51875;49.994;14.052;2022-12-22T04:17:39;36.50;;;15.02;;
65275;SDS011;51875;49.994;14.052;2022-12-22T04:18:55;37.17;;;15.55;;
65275;SDS011;51875;49.994;14.052;2022-12-22T04:20:11;37.25;;;15.52;;
65275;SDS011;51875;49.994;14.052;2022-12-22T04:21:26;54.42;;;18.88;;
65275;SDS011;51875;49.994;14.052;2022-12-22T04:22:42;79.22;;;22.92;;
65275;SDS011;51875;49.994;14.052;2022-12-22T04:23:58;93.38;;;23.92;;
65275;SDS011;51875;49.994;14.052;2022-12-22T04:25:13;51.63;;;21.17;;
65275;SDS011;51875;49.994;14.052;2022-12-22T04:26:29;60.00;;;20.83;;
65275;SDS011;51875;49.994;14.052;2022-12-22T04:27:46;55.00;;;20.17;;
65275;SDS011;51875;49.994;14.052;2022-12-22T04:29:01;90.38;;;23.60;;
65275;SDS011;51875;49.994;14.052;2022-12-22T04:30:17;137.93;;;26.42;;
65275;SDS011;51875;49.994;14.052;2022-12-22T04:31:32;93.72;;;24.17;;
65275;SDS011;51875;49.994;14.052;2022-12-22T04:32:48;234.60;;;29.50;;
65275;SDS011;51875;49.994;14.052;2022-12-22T04:34:04;104.10;;;26.67;;
65275;SDS011;51875;49.994;14.052;2022-12-22T04:35:19;205.63;;;27.63;;
65275;SDS011;51875;49.994;14.052;2022-12-22T04:36:35;81.68;;;25.10;;
65275;SDS011;51875;49.994;14.052;2022-12-22T04:37:51;96.88;;;25.83;;
65275;SDS011;51875;49.994;14.052;2022-12-22T04:39:06;235.48;;;33.88;;
65275;SDS011;51875;49.994;14.052;2022-12-22T04:40:22;126.97;;;28.15;;
65275;SDS011;51875;49.994;14.052;2022-12-22T04:41:37;140.68;;;27.73;;
65275;SDS011;51875;49.994;14.052;2022-12-22T04:42:53;102.43;;;27.27;;
65275;SDS011;51875;49.994;14.052;2022-12-22T04:44:09;59.30;;;24.50;;
65275;SDS011;51875;49.994;14.052;2022-12-22T04:45:24;133.93;;;27.25;;
65275;SDS011;51875;49.994;14.052;2022-12-22T04:46:40;65.40;;;25.63;;
65275;SDS011;51875;49.994;14.052;2022-12-22T04:47:56;59.45;;;25.88;;
65275;SDS011;51875;49.994;14.052;2022-12-22T04:49:11;57.95;;;25.02;;
65275;SDS011;51875;49.994;14.052;2022-12-22T04:50:27;57.15;;;23.70;;
65275;SDS011;51875;49.994;14.052;2022-12-22T04:51:42;56.20;;;24.08;;
65275;SDS011;51875;49.994;14.052;2022-12-22T04:52:58;66.55;;;25.63;;
65275;SDS011;51875;49.994;14.052;2022-12-22T04:54:13;85.28;;;25.90;;
65275;SDS011;51875;49.994;14.052;2022-12-22T04:55:29;79.40;;;23.70;;
65275;SDS011;51875;49.994;14.052;2022-12-22T04:56:44;95.57;;;25.88;;
65275;SDS011;51875;49.994;14.052;2022-12-22T04:58:00;83.97;;;26.02;;
65275;SDS011;51875;49.994;14.052;2022-12-22T04:59:16;62.13;;;23.45;;
65275;SDS011;51875;49.994;14.052;2022-12-22T05:00:32;60.08;;;23.17;;
65275;SDS011;51875;49.994;14.052;2022-12-22T05:01:47;75.40;;;23.90;;
65275;SDS011;51875;49.994;14.052;2022-12-22T05:03:03;59.30;;;23.80;;
65275;SDS011;51875;49.994;14.052;2022-12-22T05:04:19;52.80;;;22.70;;
65275;SDS011;51875;49.994;14.052;2022-12-22T05:05:34;60.83;;;23.42;;
65275;SDS011;51875;49.994;14.052;2022-12-22T05:06:50;45.40;;;21.33;;
65275;SDS011;51875;49.994;14.052;2022-12-22T05:08:06;79.25;;;23.05;;
65275;SDS011;51875;49.994;14.052;2022-12-22T05:09:21;55.30;;;22.30;;
65275;SDS011;51875;49.994;14.052;2022-12-22T05:10:37;70.05;;;23.00;;
65275;SDS011;51875;49.994;14.052;2022-12-22T05:11:52;71.25;;;22.58;;
65275;SDS011;51875;49.994;14.052;2022-12-22T05:13:08;46.78;;;20.60;;
65275;SDS011;51875;49.994;14.052;2022-12-22T05:14:24;43.88;;;20.70;;
65275;SDS011;51875;49.994;14.052;2022-12-22T05:15:40;46.08;;;20.65;;
65275;SDS011;51875;49.994;14.052;2022-12-22T05:16:55;61.60;;;21.58;;
65275;SDS011;51875;49.994;14.052;2022-12-22T05:18:11;47.38;;;19.98;;
65275;SDS011;51875;49.994;14.052;2022-12-22T05:19:27;55.60;;;20.42;;
65275;SDS011;51875;49.994;14.052;2022-12-22T05:20:42;42.28;;;19.38;;
65275;SDS011;51875;49.994;14.052;2022-12-22T05:21:58;44.22;;;19.38;;
65275;SDS011;51875;49.994;14.052;2022-12-22T05:23:14;48.53;;;19.85;;
65275;SDS011;51875;49.994;14.052;2022-12-22T05:24:29;46.75;;;18.23;;
65275;SDS011;51875;49.994;14.052;2022-12-22T05:25:45;39.78;;;19.15;;
65275;SDS011;51875;49.994;14.052;2022-12-22T05:27:00;44.70;;;19.73;;
65275;SDS011;51875;49.994;14.052;2022-12-22T05:28:16;40.22;;;18.65;;
65275;SDS011;51875;49.994;14.052;2022-12-22T05:29:32;43.42;;;19.58;;
65275;SDS011;51875;49.994;14.052;2022-12-22T05:30:47;50.50;;;20.20;;
65275;SDS011;51875;49.994;14.052;2022-12-22T05:32:03;40.17;;;17.45;;
65275;SDS011;51875;49.994;14.052;2022-12-22T05:33:19;42.22;;;19.00;;
65275;SDS011;51875;49.994;14.052;2022-12-22T05:34:35;42.53;;;18.30;;
65275;SDS011;51875;49.994;14.052;2022-12-22T05:35:51;50.40;;;19.75;;
65275;SDS011;51875;49.994;14.052;2022-12-22T05:37:06;43.13;;;18.73;;
65275;SDS011;51875;49.994;14.052;2022-12-22T05:38:22;42.67;;;19.27;;
65275;SDS011;51875;49.994;14.052;2022-12-22T05:39:38;47.78;;;20.83;;
65275;SDS011;51875;49.994;14.052;2022-12-22T05:40:54;44.53;;;20.13;;
65275;SDS011;51875;49.994;14.052;2022-12-22T05:42:10;44.30;;;18.95;;
65275;SDS011;51875;49.994;14.052;2022-12-22T05:43:25;39.67;;;18.35;;
65275;SDS011;51875;49.994;14.052;2022-12-22T05:44:41;45.22;;;19.15;;
65275;SDS011;51875;49.994;14.052;2022-12-22T05:45:59;50.25;;;21.52;;
65275;SDS011;51875;49.994;14.052;2022-12-22T05:47:15;44.67;;;19.15;;
65275;SDS011;51875;49.994;14.052;2022-12-22T05:48:31;49.88;;;21.00;;
65275;SDS011;51875;49.994;14.052;2022-12-22T05:49:47;41.47;;;19.27;;
65275;SDS011;51875;49.994;14.052;2022-12-22T05:51:03;41.47;;;20.30;;
65275;SDS011;51875;49.994;14.052;2022-12-22T05:52:18;33.83;;;16.50;;
65275;SDS011;51875;49.994;14.052;2022-12-22T05:53:35;38.25;;;16.80;;
65275;SDS011;51875;49.994;14.052;2022-12-22T05:54:51;36.58;;;17.45;;
65275;SDS011;51875;49.994;14.052;2022-12-22T05:56:06;35.92;;;15.77;;
65275;SDS011;51875;49.994;14.052;2022-12-22T05:57:22;44.80;;;17.33;;
65275;SDS011;51875;49.994;14.052;2022-12-22T05:58:38;41.30;;;19.30;;
65275;SDS011;51875;49.994;14.052;2022-12-22T05:59:54;34.33;;;16.77;;
65275;SDS011;51875;49.994;14.052;2022-12-22T06:01:09;37.88;;;18.20;;
65275;SDS011;51875;49.994;14.052;2022-12-22T06:02:25;39.15;;;19.23;;
65275;SDS011;51875;49.994;14.052;2022-12-22T06:03:41;52.90;;;20.73;;
65275;SDS011;51875;49.994;14.052;2022-12-22T06:04:56;39.33;;;18.48;;
65275;SDS011;51875;49.994;14.052;2022-12-22T06:06:12;73.72;;;23.70;;
65275;SDS011;51875;49.994;14.052;2022-12-22T06:07:27;80.85;;;32.85;;
65275;SDS011;51875;49.994;14.052;2022-12-22T06:08:43;58.30;;;26.63;;
65275;SDS011;51875;49.994;14.052;2022-12-22T06:09:59;66.97;;;33.72;;
65275;SDS011;51875;49.994;14.052;2022-12-22T06:11:15;49.70;;;23.02;;
65275;SDS011;51875;49.994;14.052;2022-12-22T06:12:32;59.65;;;23.92;;
65275;SDS011;51875;49.994;14.052;2022-12-22T06:13:48;49.38;;;21.38;;
65275;SDS011;51875;49.994;14.052;2022-12-22T06:15:04;49.22;;;22.33;;
65275;SDS011;51875;49.994;14.052;2022-12-22T06:16:22;168.10;;;24.98;;
65275;SDS011;51875;49.994;14.052;2022-12-22T06:17:37;44.33;;;19.58;;
65275;SDS011;51875;49.994;14.052;2022-12-22T06:18:53;42.53;;;19.67;;
65275;SDS011;51875;49.994;14.052;2022-12-22T06:20:09;43.45;;;20.15;;
65275;SDS011;51875;49.994;14.052;2022-12-22T06:21:25;46.60;;;19.77;;
65275;SDS011;51875;49.994;14.052;2022-12-22T06:22:41;60.20;;;19.38;;
65275;SDS011;51875;49.994;14.052;2022-12-22T06:23:57;42.78;;;19.33;;
65275;SDS011;51875;49.994;14.052;2022-12-22T06:25:13;48.17;;;20.98;;
65275;SDS011;51875;49.994;14.052;2022-12-22T06:26:29;44.75;;;19.58;;
65275;SDS011;51875;49.994;14.052;2022-12-22T06:27:45;40.75;;;18.42;;
65275;SDS011;51875;49.994;14.052;2022-12-22T06:29:01;42.05;;;18.60;;
65275;SDS011;51875;49.994;14.052;2022-12-22T06:30:17;49.20;;;22.17;;
65275;SDS011;51875;49.994;14.052;2022-12-22T06:31:33;40.67;;;18.70;;
65275;SDS011;51875;49.994;14.052;2022-12-22T06:32:48;40.45;;;17.85;;
65275;SDS011;51875;49.994;14.052;2022-12-22T06:34:04;49.88;;;22.08;;
65275;SDS011;51875;49.994;14.052;2022-12-22T06:35:20;48.10;;;20.15;;
65275;SDS011;51875;49.994;14.052;2022-12-22T06:36:36;56.58;;;22.95;;
65275;SDS011;51875;49.994;14.052;2022-12-22T06:37:53;64.05;;;23.17;;
65275;SDS011;51875;49.994;14.052;2022-12-22T06:39:08;68.60;;;24.17;;
65275;SDS011;51875;49.994;14.052;2022-12-22T06:40:24;60.03;;;22.70;;
65275;SDS011;51875;49.994;14.052;2022-12-22T06:41:40;58.58;;;21.65;;
65275;SDS011;51875;49.994;14.052;2022-12-22T06:43:14;50.75;;;21.73;;
65275;SDS011;51875;49.994;14.052;2022-12-22T06:44:30;55.00;;;22.70;;
65275;SDS011;51875;49.994;14.052;2022-12-22T06:45:49;56.28;;;21.60;;
65275;SDS011;51875;49.994;14.052;2022-12-22T06:47:07;47.58;;;22.15;;
65275;SDS011;51875;49.994;14.052;2022-12-22T06:48:39;46.22;;;21.05;;
65275;SDS011;51875;49.994;14.052;2022-12-22T06:50:15;52.50;;;21.25;;
65275;SDS011;51875;49.994;14.052;2022-12-22T06:51:48;49.92;;;21.58;;
65275;SDS011;51875;49.994;14.052;2022-12-22T06:53:26;52.75;;;20.40;;
65275;SDS011;51875;49.994;14.052;2022-12-22T06:54:41;57.67;;;22.23;;
65275;SDS011;51875;49.994;14.052;2022-12-22T06:55:57;50.33;;;21.65;;
65275;SDS011;51875;49.994;14.052;2022-12-22T06:57:12;46.22;;;19.48;;
65275;SDS011;51875;49.994;14.052;2022-12-22T06:58:28;41.42;;;18.00;;
65275;SDS011;51875;49.994;14.052;2022-12-22T06:59:43;36.08;;;16.02;;
65275;SDS011;51875;49.994;14.052;2022-12-22T07:00:59;30.85;;;14.90;;
65275;SDS011;51875;49.994;14.052;2022-12-22T07:02:15;31.95;;;15.82;;
65275;SDS011;51875;49.994;14.052;2022-12-22T07:03:30;32.45;;;15.68;;
65275;SDS011;51875;49.994;14.052;2022-12-22T07:04:46;43.40;;;21.15;;
65275;SDS011;51875;49.994;14.052;2022-12-22T07:06:02;45.63;;;20.02;;
65275;SDS011;51875;49.994;14.052;2022-12-22T07:07:17;39.75;;;18.70;;
65275;SDS011;51875;49.994;14.052;2022-12-22T07:08:33;34.63;;;15.45;;
65275;SDS011;51875;49.994;14.052;2022-12-22T07:09:49;26.80;;;14.02;;
65275;SDS011;51875;49.994;14.052;2022-12-22T07:11:04;27.05;;;12.80;;
65275;SDS011;51875;49.994;14.052;2022-12-22T07:12:20;27.25;;;12.68;;
65275;SDS011;51875;49.994;14.052;2022-12-22T07:13:37;27.35;;;12.38;;
65275;SDS011;51875;49.994;14.052;2022-12-22T07:14:52;27.80;;;12.90;;
65275;SDS011;51875;49.994;14.052;2022-12-22T07:16:09;35.08;;;15.07;;
65275;SDS011;51875;49.994;14.052;2022-12-22T07:17:25;27.38;;;12.82;;
65275;SDS011;51875;49.994;14.052;2022-12-22T07:18:41;29.13;;;13.60;;
65275;SDS011;51875;49.994;14.052;2022-12-22T07:19:57;40.40;;;15.50;;
65275;SDS011;51875;49.994;14.052;2022-12-22T07:21:13;33.15;;;15.20;;
65275;SDS011;51875;49.994;14.052;2022-12-22T07:22:29;28.45;;;13.07;;
65275;SDS011;51875;49.994;14.052;2022-12-22T07:23:44;27.27;;;12.13;;
65275;SDS011;51875;49.994;14.052;2022-12-22T07:25:00;29.63;;;13.32;;
65275;SDS011;51875;49.994;14.052;2022-12-22T07:26:16;27.85;;;14.07;;
65275;SDS011;51875;49.994;14.052;2022-12-22T07:27:31;27.70;;;13.40;;
65275;SDS011;51875;49.994;14.052;2022-12-22T07:28:47;27.90;;;12.93;;
65275;SDS011;51875;49.994;14.052;2022-12-22T07:30:02;25.35;;;12.85;;
65275;SDS011;51875;49.994;14.052;2022-12-22T07:31:18;39.17;;;16.20;;
65275;SDS011;51875;49.994;14.052;2022-12-22T07:32:34;44.85;;;18.92;;
65275;SDS011;51875;49.994;14.052;2022-12-22T07:33:50;47.50;;;19.77;;
65275;SDS011;51875;49.994;14.052;2022-12-22T07:35:06;49.08;;;22.42;;
65275;SDS011;51875;49.994;14.052;2022-12-22T07:36:22;42.88;;;19.08;;
65275;SDS011;51875;49.994;14.052;2022-12-22T07:37:37;39.97;;;20.08;;
65275;SDS011;51875;49.994;14.052;2022-12-22T07:38:53;39.88;;;16.85;;
65275;SDS011;51875;49.994;14.052;2022-12-22T07:40:09;32.45;;;15.27;;
65275;SDS011;51875;49.994;14.052;2022-12-22T07:41:25;27.60;;;14.25;;
65275;SDS011;51875;49.994;14.052;2022-12-22T07:42:59;29.90;;;12.88;;
65275;SDS011;51875;49.994;14.052;2022-12-22T07:44:15;24.73;;;11.15;;
65275;SDS011;51875;49.994;14.052;2022-12-22T07:45:30;22.75;;;11.18;;
65275;SDS011;51875;49.994;14.052;2022-12-22T07:46:48;24.95;;;10.73;;
65275;SDS011;51875;49.994;14.052;2022-12-22T07:48:04;21.13;;;9.90;;
65275;SDS011;51875;49.994;14.052;2022-12-22T07:49:40;25.40;;;10.32;;
65275;SDS011;51875;49.994;14.052;2022-12-22T07:51:14;22.85;;;10.60;;
65275;SDS011;51875;49.994;14.052;2022-12-22T07:52:30;22.98;;;9.68;;
65275;SDS011;51875;49.994;14.052;2022-12-22T07:53:45;25.52;;;10.23;;
65275;SDS011;51875;49.994;14.052;2022-12-22T07:55:01;24.15;;;9.98;;
65275;SDS011;51875;49.994;14.052;2022-12-22T07:56:17;26.67;;;11.05;;
65275;SDS011;51875;49.994;14.052;2022-12-22T07:57:32;24.98;;;10.45;;
65275;SDS011;51875;49.994;14.052;2022-12-22T07:58:49;27.63;;;10.63;;
65275;SDS011;51875;49.994;14.052;2022-12-22T08:00:05;30.73;;;11.07;;
65275;SDS011;51875;49.994;14.052;2022-12-22T08:01:22;29.40;;;10.90;;
65275;SDS011;51875;49.994;14.052;2022-12-22T08:02:38;25.35;;;10.80;;
65275;SDS011;51875;49.994;14.052;2022-12-22T08:03:54;25.88;;;11.50;;
65275;SDS011;51875;49.994;14.052;2022-12-22T08:05:10;25.73;;;11.48;;
65275;SDS011;51875;49.994;14.052;2022-12-22T08:06:26;27.60;;;12.13;;
65275;SDS011;51875;49.994;14.052;2022-12-22T08:07:42;26.98;;;12.05;;
65275;SDS011;51875;49.994;14.052;2022-12-22T08:08:58;30.90;;;11.90;;
65275;SDS011;51875;49.994;14.052;2022-12-22T08:10:13;29.73;;;11.63;;
65275;SDS011;51875;49.994;14.052;2022-12-22T08:11:29;28.20;;;11.88;;
65275;SDS011;51875;49.994;14.052;2022-12-22T08:12:45;26.75;;;11.27;;
65275;SDS011;51875;49.994;14.052;2022-12-22T08:14:01;28.23;;;11.82;;
65275;SDS011;51875;49.994;14.052;2022-12-22T08:15:16;33.90;;;13.25;;